Latest Weather Observations for Kununurra Airport

IDD60801

Issued at 6:01 pm CST Thursday 30 March 2017 (issued every 30 minutes, with the page automatically refreshed every 10 minutes)

About weather observations | Map of weather stations | Latest weather observations for NT | Other Formats
Station Details ID: 002056 Name: KUNUNURRA AERO Lat: -15.78 Lon: 128.71 Height: 44.0 m
Data from the previous 72 hours. | See also: Recent months at Kununurra Airport
Date/Time
CST
Temp
°C
App
Temp
°C
Dew
Point
°C
Rel
Hum
%
Delta-T
°C
Wind Press
QNH
hPa
Press
MSL
hPa
Rain since
9am
mm
Dir  Spd
km/h
Gust
km/h
Spd
kts
Gust
kts
30/05:30pm 36.5 40.9 24.4 50 8.6 SSE 9 11 5 6 1006.8 1006.5 0.0
30/05:00pm 36.8 41.1 23.6 46 9.3 SSE 7 11 4 6 1006.9 1006.6 0.0
30/04:30pm 36.9 41.2 23.7 46 9.3 SE 7 11 4 6 1006.9 1006.6 0.0
30/04:00pm 37.4 41.6 23.1 44 10.0 E 6 9 3 5 1006.8 1006.5 0.0
30/03:30pm 36.6 40.2 23.1 45 9.4 SE 9 15 5 8 1006.7 1006.4 0.0
30/03:00pm 36.5 40.5 23.7 47 9.0 SE 9 17 5 9 1007.1 1006.8 0.0
30/02:30pm 36.4 40.3 22.9 45 9.4 ESE 7 11 4 6 1007.3 1007.0 0.0
30/02:00pm 36.1 39.8 23.3 47 8.9 SE 9 15 5 8 1007.6 1007.3 0.0
30/01:30pm 35.4 38.8 23.4 50 8.4 ESE 11 15 6 8 1008.1 1007.8 0.0
30/01:00pm 35.3 39.6 23.6 50 8.2 NNE 7 13 4 7 1008.5 1008.2 0.0
30/12:30pm 35.1 39.9 24.1 53 7.7 WSW 6 9 3 5 1009.0 1008.7 0.0
30/12:00pm 34.2 38.5 24.2 56 7.0 SSW 9 13 5 7 1009.4 1009.1 0.0
30/11:30am 34.2 39.5 25.3 59 6.3 WNW 7 11 4 6 1010.0 1009.7 0.0
30/11:00am 32.6 38.3 25.9 68 4.8 NNE 7 11 4 6 1010.4 1010.1 0.0
30/10:30am 30.9 36.2 25.9 74 3.6 NNE 9 13 5 7 1010.6 1010.3 0.0
30/10:00am 30.1 34.7 24.7 73 3.8 N 9 11 5 6 1010.5 1010.2 0.0
30/09:30am 30.1 34.9 24.5 72 3.9 N 7 11 4 6 1010.7 1010.4 0.0
30/09:00am 29.3 33.8 24.6 76 3.3 N 9 11 5 6 1010.7 1010.4 0.0
30/08:30am 27.9 32.7 24.1 80 2.6 N 6 7 3 4 1010.6 1010.3 0.0
30/08:00am 26.7 30.6 23.6 83 2.1 NNE 9 15 5 8 1010.4 1010.1 0.0
30/07:30am 26.5 30.2 22.6 79 2.6 S 7 9 4 5 1009.8 1009.5 0.0
30/07:00am 25.7 28.6 22.4 82 2.2 SW 11 15 6 8 1009.6 1009.3 0.0
30/06:30am 25.7 30.7 23.2 86 1.7 WSW 2 6 1 3 1009.2 1008.9 0.0
30/06:00am 25.5 29.7 23.2 87 1.6 W 6 6 3 3 1008.9 1008.6 0.0
30/05:30am 25.5 30.2 23.4 88 1.4 W 4 7 2 4 1008.7 1008.4 0.0
30/05:00am 26.2 30.8 23.1 83 2.1 SSW 4 7 2 4 1008.9 1008.6 0.0
30/04:30am 26.0 32.3 24.8 93 0.8 CALM 0 0 0 0 1008.9 1008.6 0.0
30/04:00am 26.3 31.7 25.1 93 0.8 WSW 6 6 3 3 1009.0 1008.7 0.0
30/03:30am 25.7 30.7 24.5 93 0.8 WNW 6 7 3 4 1008.7 1008.4 0.0
30/03:00am 25.9 30.8 24.7 93 0.8 NW 7 9 4 5 1008.7 1008.4 0.0
30/02:30am 26.3 31.4 24.9 92 1.0 N 7 9 4 5 1009.0 1008.7 0.0
30/02:00am 26.8 31.7 25.2 91 1.1 N 9 9 5 5 1009.1 1008.8 0.0
30/01:30am 26.9 31.7 24.5 87 1.7 NW 7 15 4 8 1009.3 1009.0 0.0
30/01:00am 27.7 31.0 22.6 74 3.5 W 9 11 5 6 1009.1 1008.8 0.0
30/12:30am 27.8 32.6 24.4 82 2.4 W 7 9 4 5 1009.0 1008.7 0.0
30/12:00am 27.9 33.5 25.5 87 1.7 NW 6 7 3 4 1009.4 1009.1 0.0
 
Date/Time
CST
Temp
°C
App
Temp
°C
Dew
Point
°C
Rel
Hum
%
Delta-T
°C
Wind Press
QNH
hPa
Press
MSL
hPa
Rain since
9am
mm
Dir  Spd
km/h
Gust
km/h
Spd
kts
Gust
kts
29/11:30pm 28.2 33.6 25.4 85 2.0 SW 7 9 4 5 1009.7 1009.4 0.0
29/11:00pm 28.0 33.8 26.0 89 1.4 NW 7 11 4 6 1009.5 1009.2 0.0
29/10:30pm 28.1 33.6 26.1 89 1.4 NW 9 13 5 7 1009.6 1009.3 0.0
29/10:28pm 28.2 33.7 26.2 89 1.4 WNW 9 13 5 7 1009.7 1009.4 0.0
29/10:18pm 28.0 33.4 26.0 89 1.4 W 9 13 5 7 1009.9 1009.6 0.0
29/10:04pm 28.2 33.2 26.0 88 1.6 NNW 11 15 6 8 1009.8 1009.5 0.0
29/10:00pm 28.2 32.8 26.0 88 1.6 NNW 13 15 7 8 1009.6 1009.3 0.0
29/09:45pm 28.4 34.5 26.2 88 1.6 NNW 6 9 3 5 1009.6 1009.3 0.0
29/09:30pm 28.7 34.4 25.9 85 2.0 NNW 7 11 4 6 1009.7 1009.4 0.0
29/09:15pm 29.1 35.2 25.7 82 2.4 N 4 7 2 4 1009.8 1009.5 0.0
29/09:00pm 29.2 34.3 25.6 81 2.5 ENE 9 15 5 8 1009.6 1009.3 0.0
29/08:49pm 29.1 33.0 25.5 81 2.5 ESE 15 20 8 11 1009.9 1009.6 0.0
29/08:38pm 28.9 32.1 25.9 84 2.1 SSE 20 32 11 17 1009.6 1009.3 0.0
29/08:30pm 29.1 33.9 25.7 82 2.4 SE 11 19 6 10 1009.2 1008.9 0.0
29/08:00pm 28.8 34.4 24.8 79 2.8 NE 4 9 2 5 1008.8 1008.5 0.0
29/07:30pm 28.6 34.1 24.6 79 2.8 NNE 4 9 2 5 1008.6 1008.3 0.0
29/07:00pm 28.7 33.0 24.9 80 2.7 N 11 13 6 7 1007.3 1007.0 0.0
29/06:30pm 29.5 33.9 26.3 83 2.3 N 15 20 8 11 1006.8 1006.5 0.0
29/06:20pm 29.8 34.4 26.0 80 2.7 N 13 17 7 9 1006.2 1005.9 0.0
29/06:09pm 30.0 34.8 26.2 80 2.7 N 13 19 7 10 1006.2 1005.9 0.0
29/06:00pm 30.4 35.6 25.7 76 3.3 NNE 9 11 5 6 1005.9 1005.6 0.0
29/05:30pm 30.4 35.8 25.2 74 3.7 NNE 6 7 3 4 1005.9 1005.6 0.0
29/05:00pm 30.4 35.0 24.8 72 3.9 NNE 9 15 5 8 1005.4 1005.1 0.0
29/04:56pm 30.3 34.2 24.2 70 4.3 NNE 11 15 6 8 1005.4 1005.1 0.0
29/04:30pm 30.5 34.0 24.2 69 4.4 NNE 13 17 7 9 1006.0 1005.7 0.0
29/04:27pm 30.5 33.8 23.9 68 4.6 N 13 19 7 10 1006.0 1005.7 0.0
29/04:00pm 32.1 37.2 24.9 65 5.1 NW 7 11 4 6 1006.2 1005.9 0.0
29/03:46pm 31.2 36.0 25.1 70 4.3 NNW 9 11 5 6 1006.8 1006.5 0.0
29/03:34pm 31.0 35.9 24.6 68 4.5 N 7 11 4 6 1006.7 1006.4 0.0
29/03:30pm 30.8 35.1 24.2 68 4.6 NNW 9 17 5 9 1006.8 1006.5 0.0
29/03:00pm 33.0 36.2 25.0 63 5.7 NNE 17 24 9 13 1006.9 1006.6 0.0
29/02:30pm 34.2 38.8 25.9 62 6.0 SE 13 17 7 9 1006.7 1006.4 0.0
29/02:16pm 34.4 38.5 25.2 58 6.5 SE 13 20 7 11 1006.8 1006.5 0.0
29/02:00pm 35.5 39.7 24.8 54 7.6 S 11 15 6 8 1006.8 1006.5 0.0
29/01:58pm 35.6 40.2 24.8 53 7.7 S 9 15 5 8 1006.8 1006.5 0.0
29/01:30pm 36.4 41.3 24.6 50 8.4 SW 7 15 4 8 1007.3 1007.0 0.0
29/01:00pm 36.4 41.7 24.9 51 8.2 SSE 6 9 3 5 1007.6 1007.3 0.0
29/12:30pm 35.6 40.1 25.2 55 7.4 WSW 11 19 6 10 1008.0 1007.7 0.0
29/12:00pm 34.8 39.9 25.6 59 6.6 W 9 15 5 8 1008.6 1008.3 0.0
29/11:30am 34.1 39.5 26.0 62 5.8 WSW 9 15 5 8 1009.1 1008.8 0.0
29/11:11am 33.5 38.2 25.5 63 5.7 SW 11 17 6 9 1009.3 1009.0 0.0
29/11:00am 33.7 38.5 26.2 65 5.4 SW 13 19 7 10 1009.3 1009.0 0.0
29/10:30am 32.7 38.3 26.3 69 4.6 SW 9 13 5 7 1009.5 1009.2 0.0
29/10:00am 31.8 38.4 27.3 77 3.3 SW 7 13 4 7 1009.9 1009.6 0.0
29/09:30am 31.1 38.5 27.0 79 3.0 NNW 2 6 1 3 1009.9 1009.6 0.0
29/09:24am 31.1 38.2 27.2 80 2.8 N 4 6 2 3 1009.9 1009.6 0.0
29/09:00am 30.2 37.3 27.2 84 2.2 NNE 4 7 2 4 1009.8 1009.5 0.0
29/08:52am 30.2 38.2 27.8 87 1.7 NE 2 6 1 3 1009.8 1009.5 0.0
29/08:30am 29.7 38.0 27.7 89 1.5 CALM 0 0 0 0 1009.7 1009.4 0.0
29/08:12am 28.7 36.8 27.5 93 0.9 CALM 0 0 0 0 1009.5 1009.2 0.0
29/08:00am 28.5 36.7 27.6 95 0.7 CALM 0 0 0 0 1009.3 1009.0 0.0
29/07:41am 27.9 35.9 27.4 97 0.4 CALM 0 0 0 0 1009.1 1008.8 0.0
29/07:30am 27.4 35.1 26.9 97 0.4 CALM 0 0 0 0 1009.0 1008.7 0.0
29/07:26am 27.1 34.6 26.6 97 0.4 CALM 0 0 0 0 1008.9 1008.6 0.0
29/07:11am 26.8 34.1 26.3 97 0.4 CALM 0 0 0 0 1008.7 1008.4 0.0
29/07:00am 26.7 33.8 26.0 96 0.5 CALM 0 0 0 0 1008.6 1008.3 0.0
29/06:58am 26.7 33.8 26.0 96 0.5 CALM 0 0 0 0 1008.6 1008.3 0.0
29/06:30am 27.0 34.3 26.3 96 0.5 CALM 0 0 0 0 1008.3 1008.0 0.0
29/06:04am 26.9 32.8 26.2 96 0.5 NE 7 9 4 5 1008.2 1007.9 0.0
29/06:00am 27.0 33.0 26.3 96 0.5 NE 7 9 4 5 1008.2 1007.9 0.0
29/05:58am 27.0 33.2 26.3 96 0.5 NE 6 7 3 4 1008.2 1007.9 0.0
29/05:39am 26.8 32.8 26.1 96 0.5 NNE 6 7 3 4 1008.0 1007.7 0.0
29/05:30am 26.8 32.6 26.1 96 0.5 N 7 7 4 4 1007.9 1007.6 0.0
29/05:13am 27.0 33.9 26.3 96 0.5 NNW 2 7 1 4 1007.6 1007.3 0.0
29/05:00am 26.9 34.1 26.2 96 0.5 CALM 0 0 0 0 1007.5 1007.2 0.0
29/04:30am 27.0 33.0 26.1 95 0.6 N 6 7 3 4 1007.6 1007.3 0.0
29/04:16am 27.2 34.4 26.1 94 0.8 CALM 0 0 0 0 1007.6 1007.3 0.0
29/04:05am 27.2 34.4 26.1 94 0.8 CALM 0 0 0 0 1007.5 1007.2 0.0
29/04:00am 27.3 34.1 26.2 94 0.8 NNE 2 6 1 3 1007.5 1007.2 0.0
29/03:35am 27.3 34.5 26.2 94 0.8 CALM 0 0 0 0 1007.6 1007.3 0.0
29/03:30am 27.3 34.5 26.2 94 0.8 CALM 0 0 0 0 1007.6 1007.3 0.0
29/03:00am 27.7 35.1 26.5 93 0.9 CALM 0 0 0 0 1007.7 1007.4 0.0
29/02:30am 28.2 35.8 26.8 92 1.0 CALM 0 0 0 0 1008.2 1007.9 0.0
29/02:02am 28.1 35.5 26.5 91 1.1 CALM 0 0 0 0 1008.0 1007.7 0.0
29/02:00am 28.2 35.7 26.6 91 1.1 CALM 0 0 0 0 1008.1 1007.8 0.0
29/01:43am 28.2 34.9 26.6 91 1.1 NNW 4 6 2 3 1008.2 1007.9 0.0
29/01:30am 28.2 34.5 26.8 92 1.0 N 7 9 4 5 1008.3 1008.0 0.0
29/01:23am 28.2 34.5 26.8 92 1.0 N 7 9 4 5 1008.3 1008.0 0.0
29/01:00am 28.4 35.1 26.6 90 1.3 NNW 4 7 2 4 1008.5 1008.2 0.0
29/12:49am 28.7 34.9 26.7 89 1.4 NNW 7 9 4 5 1008.5 1008.2 0.0
29/12:30am 29.1 36.8 26.9 88 1.6 CALM 0 6 0 3 1008.6 1008.3 0.0
29/12:00am 29.1 34.8 26.5 86 1.9 NE 9 11 5 6 1008.6 1008.3 0.0
 
Date/Time
CST
Temp
°C
App
Temp
°C
Dew
Point
°C
Rel
Hum
%
Delta-T
°C
Wind Press
QNH
hPa
Press
MSL
hPa
Rain since
9am
mm
Dir  Spd
km/h
Gust
km/h
Spd
kts
Gust
kts
28/11:30pm 28.8 34.1 26.4 87 1.7 NNE 11 11 6 6 1008.6 1008.3 0.0
28/11:00pm 30.1 35.8 26.5 81 2.6 E 9 9 5 5 1008.7 1008.4 0.0
28/10:30pm 30.5 36.5 26.4 79 2.9 ESE 7 11 4 6 1008.9 1008.6 0.0
28/10:00pm 30.8 36.3 26.1 76 3.4 SE 9 11 5 6 1008.8 1008.5 0.0
28/09:30pm 30.8 36.6 26.1 76 3.4 E 7 9 4 5 1009.0 1008.7 0.0
28/09:00pm 31.2 37.5 26.5 76 3.4 ESE 6 9 3 5 1008.7 1008.4 0.0
28/08:45pm 31.2 37.0 26.0 74 3.7 SE 7 9 4 5 1008.4 1008.1 0.0
28/08:30pm 31.1 36.4 25.9 74 3.7 ESE 9 11 5 6 1008.2 1007.9 0.0
28/08:29pm 31.0 36.3 25.8 74 3.7 ESE 9 11 5 6 1008.1 1007.8 0.0
28/08:07pm 31.5 37.5 26.3 74 3.7 SE 7 9 4 5 1007.7 1007.4 0.0
28/08:00pm 31.7 37.8 26.5 74 3.7 SSE 7 9 4 5 1007.6 1007.3 0.0
28/07:54pm 31.8 37.8 26.4 73 3.9 SSE 7 9 4 5 1007.3 1007.0 0.0
28/07:30pm 31.8 37.6 26.6 74 3.7 E 9 11 5 6 1006.9 1006.6 0.0
28/07:00pm 33.3 39.3 26.1 66 5.2 NNW 6 7 3 4 1006.2 1005.9 0.0
28/06:30pm 34.1 39.0 24.7 58 6.7 NNW 7 9 4 5 1005.9 1005.6 0.0
28/06:00pm 35.3 40.8 24.6 54 7.6 WNW 4 6 2 3 1005.8 1005.5 0.0
28/05:30pm 35.3 39.2 23.6 50 8.2 WNW 9 13 5 7 1005.8 1005.5 0.0
28/05:00pm 35.4 39.6 23.4 50 8.4 NNE 7 11 4 6 1005.8 1005.5 0.0
28/04:30pm 35.5 40.3 24.4 52 7.9 NW 7 11 4 6 1005.9 1005.6 0.0
28/04:00pm 35.4 39.7 24.3 52 7.8 N 9 13 5 7 1006.4 1006.1 0.0
28/03:30pm 35.2 40.2 25.4 57 7.0 NE 9 15 5 8 1006.7 1006.4 0.0
28/03:00pm 35.5 41.3 26.0 58 6.8 NNE 7 13 4 7 1007.0 1006.7 0.0
28/02:30pm 34.8 39.2 25.0 56 7.0 NE 11 15 6 8 1007.6 1007.3 0.0
28/02:00pm 34.8 40.1 25.3 57 6.8 NNE 7 11 4 6 1008.1 1007.8 0.0
28/01:30pm 34.8 41.0 26.4 61 6.1 S 6 9 3 5 1008.6 1008.3 0.0
28/01:00pm 34.2 39.9 25.6 61 6.1 NNE 6 9 3 5 1008.9 1008.6 0.0
28/12:30pm 33.5 39.1 25.7 63 5.6 ESE 7 15 4 8 1009.3 1009.0 0.0
28/12:00pm 33.6 40.0 26.6 67 5.1 SE 6 15 3 8 1009.6 1009.3 0.0
28/11:30am 32.6 37.9 25.9 68 4.8 NNW 9 17 5 9 1009.9 1009.6 0.0
28/11:00am 31.7 37.7 26.0 72 4.1 NW 6 13 3 7 1010.4 1010.1 0.0
28/10:30am 31.6 38.6 26.4 74 3.7 NNW 2 7 1 4 1010.7 1010.4 1.4
28/10:00am 30.8 37.0 26.3 77 3.2 SSW 6 7 3 4 1010.7 1010.4 1.4
28/09:45am 30.0 36.3 26.0 79 2.8 SSW 4 7 2 4 1010.7 1010.4 1.4
28/09:30am 30.2 36.8 26.4 80 2.7 SSE 4 7 2 4 1010.6 1010.3 1.2
28/09:22am 29.5 35.5 26.1 82 2.4 SSW 6 7 3 4 1010.5 1010.2 1.2
28/09:00am 28.9 34.8 25.9 84 2.1 SSW 6 7 3 4 1010.5 1010.2 1.2
28/08:46am 28.9 35.3 26.1 85 2.0 SSE 4 7 2 4 1010.5 1010.2 1.2
28/08:30am 28.7 34.6 25.9 85 2.0 SE 6 9 3 5 1010.4 1010.1 1.2
28/08:03am 27.9 33.9 26.1 90 1.3 ESE 6 6 3 3 1010.2 1009.9 1.2
28/08:00am 27.8 33.9 26.2 91 1.1 ESE 6 6 3 3 1010.2 1009.9 1.2
28/07:55am 27.5 33.7 26.3 93 0.9 E 6 7 3 4 1010.2 1009.9 1.2
28/07:36am 27.0 34.4 26.5 97 0.4 CALM 0 7 0 4 1009.9 1009.6 1.2
28/07:30am 26.9 34.3 26.4 97 0.4 CALM 0 0 0 0 1009.9 1009.6 1.2
28/07:22am 26.7 33.9 26.2 97 0.4 CALM 0 0 0 0 1009.9 1009.6 1.2
28/07:04am 26.4 33.4 25.9 97 0.4 CALM 0 0 0 0 1009.8 1009.5 1.2
28/07:00am 26.4 33.4 25.9 97 0.4 CALM 0 0 0 0 1009.8 1009.5 1.2
28/06:46am 26.3 33.1 25.6 96 0.5 CALM 0 0 0 0 1009.6 1009.3 1.2
28/06:30am 26.4 32.5 25.7 96 0.5 ENE 4 7 2 4 1009.1 1008.8 1.2
28/06:14am 26.4 33.3 25.7 96 0.5 CALM 0 4 0 2 1008.9 1008.6 1.2
28/06:13am 26.4 33.3 25.7 96 0.5 CALM 0 6 0 3 1008.8 1008.5 1.2
28/06:00am 26.7 32.7 26.0 96 0.5 SSE 6 7 3 4 1008.8 1008.5 1.2
28/05:59am 26.7 32.7 26.0 96 0.5 SSE 6 7 3 4 1008.7 1008.4 1.2
28/05:30am 26.5 33.5 25.8 96 0.5 CALM 0 0 0 0 1008.5 1008.2 1.2
28/05:13am 26.6 33.6 25.9 96 0.5 CALM 0 0 0 0 1008.4 1008.1 1.2
28/05:00am 26.6 33.6 25.9 96 0.5 CALM 0 0 0 0 1008.5 1008.2 1.2
28/04:33am 26.7 33.8 26.0 96 0.5 CALM 0 0 0 0 1008.3 1008.0 1.2
28/04:30am 26.7 33.8 26.0 96 0.5 CALM 0 0 0 0 1008.3 1008.0 1.2
28/04:00am 26.6 33.6 25.9 96 0.5 CALM 0 6 0 3 1008.5 1008.2 1.2
28/03:36am 26.5 33.5 25.8 96 0.5 CALM 0 7 0 4 1008.3 1008.0 1.2
28/03:30am 26.7 33.8 26.0 96 0.5 CALM 0 0 0 0 1008.4 1008.1 1.2
28/03:17am 26.6 33.6 25.9 96 0.5 CALM 0 0 0 0 1008.5 1008.2 1.2
28/03:12am 26.6 33.6 25.9 96 0.5 CALM 0 0 0 0 1008.5 1008.2 1.2
28/03:00am 26.9 34.1 26.2 96 0.5 CALM 0 0 0 0 1008.6 1008.3 1.2
28/02:58am 26.9 34.1 26.2 96 0.5 CALM 0 0 0 0 1008.6 1008.3 1.2
28/02:42am 26.8 34.0 26.1 96 0.5 CALM 0 0 0 0 1008.8 1008.5 1.2
28/02:30am 26.8 34.0 26.1 96 0.5 CALM 0 0 0 0 1008.9 1008.6 1.2
28/02:24am 26.8 34.0 26.1 96 0.5 CALM 0 0 0 0 1009.0 1008.7 1.2
28/02:12am 26.8 33.8 25.9 95 0.6 CALM 0 0 0 0 1009.2 1008.9 1.2
28/02:00am 27.0 34.2 26.1 95 0.6 CALM 0 0 0 0 1009.3 1009.0 1.2
28/01:48am 27.1 34.2 26.0 94 0.8 CALM 0 6 0 3 1009.3 1009.0 1.2
28/01:31am 27.1 33.2 26.2 95 0.6 SSE 6 7 3 4 1009.6 1009.3 1.2
28/01:30am 27.2 33.4 26.3 95 0.6 SSE 6 7 3 4 1009.6 1009.3 1.2
28/01:21am 27.1 33.2 26.2 95 0.6 SE 6 7 3 4 1009.6 1009.3 1.2
28/01:19am 27.1 33.2 26.2 95 0.6 SE 6 7 3 4 1009.6 1009.3 1.2
28/01:01am 26.8 33.5 25.9 95 0.6 NNE 2 6 1 3 1009.6 1009.3 1.2
28/01:00am 26.8 33.5 25.9 95 0.6 N 2 6 1 3 1009.6 1009.3 1.2
28/12:58am 26.8 33.5 25.9 95 0.6 NNW 2 6 1 3 1009.5 1009.2 1.2
28/12:30am 27.0 34.1 26.0 94 0.7 CALM 0 0 0 0 1009.5 1009.2 1.2
28/12:27am 27.0 34.2 26.1 95 0.6 CALM 0 4 0 2 1009.5 1009.2 1.2
28/12:09am 26.8 32.1 25.9 95 0.6 NW 9 11 5 6 1009.5 1009.2 1.2
28/12:00am 26.9 32.9 26.0 95 0.6 N 6 9 3 5 1009.6 1009.3 1.2
 
Date/Time
CST
Temp
°C
App
Temp
°C
Dew
Point
°C
Rel
Hum
%
Delta-T
°C
Wind Press
QNH
hPa
Press
MSL
hPa
Rain since
9am
mm
Dir  Spd
km/h
Gust
km/h
Spd
kts
Gust
kts
27/11:54pm 26.9 32.8 25.9 94 0.7 NNE 6 7 3 4 1009.8 1009.5 1.2
27/11:33pm 27.2 33.9 26.0 93 0.8 NE 2 9 1 5 1010.1 1009.8 1.0
27/11:30pm 27.3 34.5 26.1 93 0.9 CALM 0 0 0 0 1010.2 1009.9 1.0
27/11:19pm 27.3 34.1 26.1 93 0.9 ENE 2 7 1 4 1010.1 1009.8 1.0
27/11:00pm 27.2 33.2 26.1 94 0.8 NNW 6 7 3 4 1010.1 1009.8 1.0
27/10:57pm 27.2 33.5 26.0 93 0.8 W 4 7 2 4 1010.3 1010.0 1.0
27/10:31pm 27.0 33.5 25.6 92 1.0 SE 2 6 1 3 1010.4 1010.1 1.0
27/10:30pm 27.0 33.5 25.6 92 1.0 SE 2 6 1 3 1010.4 1010.1 1.0
27/10:00pm 26.8 31.4 24.8 89 1.4 E 9 11 5 6 1010.2 1009.9 1.0
27/09:30pm 26.6 31.4 24.4 88 1.5 NW 7 9 4 5 1009.5 1009.2 1.0
27/09:00pm 26.7 31.2 24.0 85 1.9 NNW 7 11 4 6 1009.4 1009.1 0.6
27/08:30pm 28.0 31.8 24.0 79 2.8 NNE 11 13 6 7 1009.2 1008.9 0.6
27/08:00pm 29.3 33.5 25.9 82 2.4 NNE 15 19 8 10 1008.6 1008.3 0.6

Other Formats:

Comma delimited format used in spreadsheet applications
http://www.bom.gov.au/fwo/IDD60801/IDD60801.94216.axf

JavaScript Object Notation format (JSON) in row-major order
http://www.bom.gov.au/fwo/IDD60801/IDD60801.94216.json